createdAt,value
2022-10-09T00:01:21.544Z,15.07
2022-10-09T00:06:35.175Z,15.38
2022-10-09T00:11:37.870Z,13.02
2022-10-09T00:16:40.786Z,16.90
2022-10-09T00:21:43.531Z,12.50
2022-10-09T00:26:48.186Z,11.75
2022-10-09T00:31:52.163Z,16.75
2022-10-09T00:36:54.848Z,13.82
2022-10-09T00:41:57.604Z,18.98
2022-10-09T00:47:00.426Z,13.45
2022-10-09T00:52:04.830Z,17.35
2022-10-09T00:57:08.328Z,18.50
2022-10-09T01:02:11.088Z,19.33
2022-10-09T01:07:42.950Z,16.48
2022-10-09T01:13:09.080Z,15.65
2022-10-09T01:18:28.599Z,14.98
2022-10-09T01:24:00.747Z,17.88
2022-10-09T01:29:07.318Z,17.92
2022-10-09T01:34:12.428Z,16.90
2022-10-09T01:39:19.535Z,18.80
2022-10-09T01:44:25.059Z,13.00
2022-10-09T01:54:55.024Z,13.88
2022-10-09T01:59:59.133Z,13.77
2022-10-09T02:05:02.162Z,14.70
2022-10-09T02:10:06.199Z,17.23
2022-10-09T02:15:09.761Z,14.20
2022-10-09T02:20:31.809Z,18.30
2022-10-09T02:25:34.923Z,16.60
2022-10-09T02:30:52.745Z,13.82
2022-10-09T02:35:55.497Z,13.40
2022-10-09T02:41:01.734Z,18.83
2022-10-09T02:46:04.556Z,14.68
2022-10-09T02:51:07.566Z,16.95
2022-10-09T02:56:10.789Z,13.30
2022-10-09T03:01:13.561Z,12.38
2022-10-09T03:06:24.549Z,16.42
2022-10-09T03:11:27.451Z,15.15
2022-10-09T03:16:30.494Z,19.13
2022-10-09T03:21:33.196Z,12.50
2022-10-09T03:26:35.972Z,15.48
2022-10-09T03:31:53.873Z,17.23
2022-10-09T03:36:56.673Z,14.63
2022-10-09T03:41:59.346Z,12.30
2022-10-09T03:47:02.095Z,15.02
2022-10-09T03:52:05.013Z,10.95
2022-10-09T03:57:07.809Z,11.30
2022-10-09T04:02:10.738Z,11.27
2022-10-09T04:07:13.433Z,12.80
2022-10-09T04:12:16.165Z,16.88
2022-10-09T04:17:18.837Z,15.23
2022-10-09T04:22:21.527Z,23.58
2022-10-09T04:27:24.204Z,14.13
2022-10-09T04:32:26.892Z,17.70
2022-10-09T04:37:29.649Z,17.17
2022-10-09T04:42:32.355Z,15.32
2022-10-09T04:47:35.708Z,14.45
2022-10-09T04:52:38.373Z,12.25
2022-10-09T04:57:41.089Z,13.98
2022-10-09T05:02:43.850Z,15.68
2022-10-09T05:07:46.730Z,32.00
2022-10-09T05:12:49.747Z,15.13
2022-10-09T05:17:52.822Z,17.88
2022-10-09T05:22:55.532Z,13.60
2022-10-09T05:27:58.254Z,9.65
2022-10-09T05:33:00.927Z,17.20
2022-10-09T05:38:03.574Z,19.20
2022-10-09T05:43:06.300Z,16.88
2022-10-09T05:48:08.973Z,12.60
2022-10-09T05:53:11.777Z,8.88
2022-10-09T05:58:14.407Z,13.93
2022-10-09T06:03:17.126Z,16.17
2022-10-09T06:08:19.751Z,19.90
2022-10-09T06:13:22.424Z,13.40
2022-10-09T06:18:25.106Z,12.30
2022-10-09T06:23:28.403Z,12.27
2022-10-09T06:28:32.878Z,13.95
2022-10-09T06:33:37.441Z,14.07
2022-10-09T06:38:41.244Z,13.57
2022-10-09T06:43:52.096Z,10.50
2022-10-09T06:48:54.854Z,10.68
2022-10-09T06:53:59.545Z,13.75
2022-10-09T06:59:04.325Z,16.27
2022-10-09T07:04:12.185Z,14.40
2022-10-09T07:09:16.129Z,13.20
2022-10-09T07:14:18.915Z,23.15
2022-10-09T07:19:22.179Z,11.77
2022-10-09T07:24:25.809Z,22.08
2022-10-09T07:29:28.557Z,16.67
2022-10-09T07:34:31.277Z,12.48
2022-10-09T07:39:35.251Z,14.95
2022-10-09T07:44:37.925Z,19.88
2022-10-09T07:49:40.689Z,60.45
2022-10-09T07:54:43.351Z,18.70
2022-10-09T07:59:46.022Z,17.27
2022-10-09T08:04:48.749Z,12.90
2022-10-09T08:09:53.039Z,12.18
2022-10-09T08:14:55.793Z,20.05
2022-10-09T08:19:58.787Z,15.73
2022-10-09T08:25:01.554Z,23.40
2022-10-09T08:30:06.227Z,16.23
2022-10-09T08:35:09.153Z,13.20
2022-10-09T08:40:19.780Z,9.70
2022-10-09T08:45:22.477Z,15.45
2022-10-09T08:50:32.894Z,14.07
2022-10-09T08:55:45.349Z,23.75
2022-10-09T09:00:55.253Z,16.30
2022-10-09T09:06:04.246Z,16.58
2022-10-09T09:11:30.260Z,12.52
2022-10-09T09:16:51.122Z,12.77
2022-10-09T09:21:54.488Z,17.77
2022-10-09T09:27:02.728Z,15.57
2022-10-09T09:32:05.975Z,15.73
2022-10-09T09:37:11.662Z,13.73
2022-10-09T09:42:17.829Z,19.75
2022-10-09T09:47:51.614Z,18.15
2022-10-09T09:52:55.232Z,18.63
2022-10-09T09:58:03.943Z,10.23
2022-10-09T10:03:14.948Z,14.40
2022-10-09T10:08:32.673Z,16.17
2022-10-09T10:13:38.642Z,21.73
2022-10-09T10:18:42.796Z,15.45
2022-10-09T10:29:12.374Z,13.45
2022-10-09T10:34:23.810Z,24.00
2022-10-09T10:39:40.937Z,13.75
2022-10-09T10:44:49.709Z,16.85
2022-10-09T10:49:52.363Z,12.23
2022-10-09T10:55:39.949Z,20.38
2022-10-09T11:00:50.691Z,18.58
2022-10-09T11:06:03.053Z,15.77
2022-10-09T11:11:14.867Z,19.80
2022-10-09T11:16:33.263Z,15.73
2022-10-09T11:21:46.075Z,18.17
2022-10-09T11:27:29.944Z,13.25
2022-10-09T11:32:52.808Z,18.67
2022-10-09T11:38:08.620Z,27.52
2022-10-09T11:43:28.942Z,17.90
2022-10-09T11:48:47.330Z,17.77
2022-10-09T11:53:51.438Z,16.65
2022-10-09T11:59:00.255Z,21.85
2022-10-09T12:04:08.909Z,27.05
2022-10-09T12:09:30.781Z,18.20
2022-10-09T12:14:38.383Z,23.02
2022-10-09T12:19:42.387Z,23.55
2022-10-09T12:24:48.704Z,32.47
2022-10-09T12:29:55.309Z,17.05
2022-10-09T12:34:58.370Z,20.15
2022-10-09T12:40:19.074Z,17.98
2022-10-09T12:45:25.272Z,16.25
2022-10-09T12:50:32.617Z,11.07
2022-10-09T12:55:41.517Z,14.50
2022-10-09T13:00:45.587Z,14.80
2022-10-09T13:05:48.315Z,17.77
2022-10-09T13:10:51.363Z,14.57
2022-10-09T13:16:10.951Z,11.50
2022-10-09T13:21:17.335Z,15.77
2022-10-09T13:26:28.187Z,13.63
2022-10-09T13:31:32.282Z,13.88
2022-10-09T13:36:35.009Z,12.40
2022-10-09T13:41:37.761Z,13.93
2022-10-09T13:46:43.344Z,21.38
2022-10-09T13:51:46.013Z,15.15
2022-10-09T13:56:48.784Z,20.70
2022-10-09T14:01:52.353Z,19.33
2022-10-09T14:06:55.627Z,15.70
2022-10-09T14:11:58.353Z,16.45
2022-10-09T14:17:01.248Z,18.45
2022-10-09T14:22:04.240Z,18.88
2022-10-09T14:27:07.194Z,16.63
2022-10-09T14:32:10.031Z,14.02
2022-10-09T14:37:23.910Z,9.27
2022-10-09T14:42:37.470Z,12.02
2022-10-09T14:47:40.086Z,12.35
2022-10-09T14:52:43.166Z,12.82
2022-10-09T14:57:46.026Z,12.45
2022-10-09T15:02:48.876Z,9.95
2022-10-09T15:07:51.765Z,13.65
2022-10-09T15:12:54.527Z,11.13
2022-10-09T15:17:57.423Z,16.35
2022-10-09T15:23:00.426Z,20.92
2022-10-09T15:28:03.207Z,24.13
2022-10-09T15:33:06.119Z,23.02
2022-10-09T15:38:13.768Z,28.40
2022-10-09T15:43:17.971Z,30.48
2022-10-09T15:48:23.932Z,28.10
2022-10-09T15:53:26.783Z,20.85
2022-10-09T15:58:29.572Z,20.67
2022-10-09T16:03:36.438Z,19.48
2022-10-09T16:08:40.316Z,21.98
2022-10-09T16:13:46.276Z,20.27
2022-10-09T16:18:49.639Z,24.33
2022-10-09T16:23:57.338Z,36.20
2022-10-09T16:29:01.406Z,23.80
2022-10-09T16:34:05.758Z,29.35
2022-10-09T16:39:08.837Z,19.42
2022-10-09T16:44:15.007Z,22.13
2022-10-09T16:49:21.342Z,26.67
2022-10-09T16:54:27.063Z,23.88
2022-10-09T16:59:29.777Z,25.00
2022-10-09T17:04:33.309Z,27.58
2022-10-09T17:09:37.799Z,26.30
2022-10-09T17:14:41.118Z,30.98
2022-10-09T17:19:44.335Z,25.95
2022-10-09T17:24:47.091Z,20.55
2022-10-09T17:29:49.885Z,20.30
2022-10-09T17:34:52.663Z,20.10
2022-10-09T17:39:55.339Z,22.30
2022-10-09T17:44:58.278Z,15.73
2022-10-09T17:50:01.313Z,15.90
2022-10-09T17:55:06.252Z,11.43
2022-10-09T18:00:10.774Z,18.60
2022-10-09T18:05:13.734Z,11.27
2022-10-09T18:10:17.331Z,13.52
2022-10-09T18:15:20.017Z,10.30
2022-10-09T18:20:22.791Z,9.07
2022-10-09T18:25:25.447Z,7.93
2022-10-09T18:30:28.228Z,6.28
2022-10-09T18:35:31.078Z,7.28
2022-10-09T18:40:43.103Z,5.50
2022-10-09T18:45:48.306Z,4.60
2022-10-09T18:50:51.191Z,5.55
2022-10-09T18:55:54.152Z,6.63
2022-10-09T19:00:56.828Z,4.63
2022-10-09T19:05:59.606Z,5.18
2022-10-09T19:11:03.297Z,7.18
2022-10-09T19:16:06.633Z,5.78
2022-10-09T19:21:13.926Z,10.77
2022-10-09T19:26:16.822Z,12.07
2022-10-09T19:31:19.589Z,9.25
2022-10-09T19:36:22.267Z,8.73
2022-10-09T19:41:24.990Z,8.18
2022-10-09T19:46:28.416Z,6.65
2022-10-09T19:51:31.740Z,6.47
2022-10-09T19:56:35.732Z,6.78
2022-10-09T20:01:40.600Z,9.00
2022-10-09T20:06:43.600Z,9.02
2022-10-09T20:11:46.333Z,7.40
2022-10-09T20:16:49.110Z,8.48
2022-10-09T20:21:51.755Z,6.10
2022-10-09T20:26:54.479Z,7.03
2022-10-09T20:31:57.228Z,6.93
2022-10-09T20:37:00.025Z,8.60
2022-10-09T20:42:02.781Z,6.45
2022-10-09T20:47:05.521Z,11.43
2022-10-09T20:52:08.170Z,8.75
2022-10-09T20:57:10.834Z,7.63
2022-10-09T21:02:14.643Z,15.98
2022-10-09T21:07:17.348Z,10.10
2022-10-09T21:12:20.039Z,6.32
2022-10-09T21:17:22.832Z,6.82
2022-10-09T21:22:26.292Z,12.25
2022-10-09T21:27:29.147Z,7.55
2022-10-09T21:32:31.817Z,11.00
2022-10-09T21:37:37.387Z,10.75
2022-10-09T21:42:40.273Z,7.55
2022-10-09T21:47:42.937Z,9.07
2022-10-09T21:52:45.649Z,7.95
2022-10-09T21:57:48.515Z,8.13
2022-10-09T22:02:51.717Z,11.15
2022-10-09T22:07:54.777Z,8.23
2022-10-09T22:12:57.454Z,9.30
2022-10-09T22:18:00.200Z,8.50
2022-10-09T22:23:02.903Z,5.10
2022-10-09T22:28:06.500Z,6.10
2022-10-09T22:33:09.237Z,6.80
2022-10-09T22:38:11.905Z,4.35
2022-10-09T22:43:14.617Z,4.07
2022-10-09T22:48:17.358Z,3.42
2022-10-09T22:53:20.120Z,5.32
2022-10-09T22:58:22.727Z,4.10
2022-10-09T23:03:25.428Z,3.60
2022-10-09T23:08:28.116Z,3.50
2022-10-09T23:13:30.888Z,4.25
2022-10-09T23:18:34.246Z,4.68
2022-10-09T23:23:37.086Z,2.85
2022-10-09T23:28:40.322Z,3.65
2022-10-09T23:33:44.450Z,4.40
2022-10-09T23:38:47.721Z,4.50
2022-10-09T23:43:51.113Z,4.38
2022-10-09T23:48:54.287Z,4.32
2022-10-09T23:53:58.186Z,3.75
2022-10-09T23:59:02.685Z,4.78
